Terminal Aerodrome Forecast
Issued by NWS

Home | Current Version | Previous Version | Text Only | Print | Product List | Glossary On
Versions: 1 2 3 4 5 6 7 8 9 10 11 12 13 14 15 16
000
FTUS42 KTBW 300543
TAFRSW
TAF
KRSW 300543Z 3006/3106 VRB03KT P6SM FEW030 BKN250
      TEMPO 3006/3008 BKN025
     FM301500 19005KT P6SM SCT035 SCT060 BKN250
     FM301800 26007KT P6SM VCTS SCT025CB BKN070 BKN250
     FM310100 VRB03KT P6SM FEW035 SCT070 BKN250=

USA.gov is the U.S. government's official web portal to all federal, state and local government web resources and services.